首页
METAR-TAF:

METAR-TAF

机场 :

多維爾, 法国

纬度: 49-21-55N, 经度: 000-09-16E, 海拔: 146米

当前天气观测

该预报发布于28分钟前的06:30 UTC
风速5节,风向南转西南
温度 3°C
湿度 93%
气压 1017 hPa
能见度10公里或以上
阴天层高于3200英尺

METAR: LFRG 190630Z AUTO 20005KT 9999 OVC032 03/02 Q1017 NOSIG

时间: 07:58 (06:58 UTC)

预报

该预报发布于1小时和58分钟前的05:00 UTC
预报有效从19日的 06点(UTC)到 19日的 15点(UTC)
风速4节,风向
能见度10公里或以上
1500米以下无云,无积雨云
成为
从 19日的 06点(UTC)到 19日的 09点(UTC)
风速6节,风向

TAF: LFRG 190500Z 1906/1915 19004KT CAVOK BECMG 1906/1909 18006KT

超过4000个机场的气象观测和天气预报(METAR&TAF报告)。

可查询的气象台以黄色和红色小点在地图上表示。

将鼠标移到小点上方,可查看气象台名称。

然后点击查看天气观测和预报。

如需切换地图:点击带黑十字的绿色按钮放大地图;点击带横线的绿色按钮缩小地图;或者点击绿色箭头查看邻近地区的地图。


METAR-TAF: